Time;durP1;ratioP1;P1;durP2;ratioP2;P2;SDS_P1;SDS_P2;PMS_P1;PMS_P2;Temp;Humidity;BMP_temperature;BMP_pressure;BME280_temperature;BME280_humidity;BME280_pressure;Samples;Min_cycle;Max_cycle;Signal;HPM_P1;HPM_P2
2024/01/14 00:00:02;;;;;;;;;8.75;7.00;;;;;19.24;34.52;101860.06;6368483;22;45256;-81
2024/01/14 00:02:27;;;;;;;;;9.25;9.25;;;;;19.15;34.66;101840.56;6368161;22;45273;-76
2024/01/14 00:04:52;;;;;;;;;11.00;9.50;;;;;19.26;34.47;101849.38;6366867;22;60181;-76
2024/01/14 00:07:18;;;;;;;;;12.25;9.00;;;;;19.27;34.45;101848.41;6367748;22;45304;-76
2024/01/14 00:09:43;;;;;;;;;10.50;7.50;;;;;19.14;34.65;101823.09;6368127;22;45285;-75
2024/01/14 00:12:10;;;;;;;;;9.50;8.50;;;;;19.28;34.54;101839.53;6367019;22;47970;-76
2024/01/14 00:14:35;;;;;;;;;10.75;8.75;;;;;19.23;34.77;101828.56;6339315;22;48074;-76
2024/01/14 00:17:00;;;;;;;;;10.00;9.00;;;;;19.27;34.43;101828.13;6367760;22;45262;-73
2024/01/14 00:19:26;;;;;;;;;11.00;8.00;;;;;19.20;34.96;101816.47;6339652;22;55100;-76
2024/01/14 00:21:51;;;;;;;;;7.75;5.25;;;;;19.27;34.45;101819.38;6368137;22;46881;-75
2024/01/14 00:24:16;;;;;;;;;11.00;8.50;;;;;19.27;34.69;101819.38;6367734;22;46184;-73
2024/01/14 00:26:42;;;;;;;;;8.00;7.00;;;;;19.26;34.83;101823.81;6367475;22;51153;-76
2024/01/14 00:29:07;;;;;;;;;11.00;9.75;;;;;19.26;34.46;101820.34;6368080;22;45283;-74
2024/01/14 00:31:32;;;;;;;;;8.75;7.25;;;;;19.19;34.78;101825.34;6367377;22;48867;-74
2024/01/14 00:33:58;;;;;;;;;11.75;8.25;;;;;19.19;34.47;101814.78;6368145;22;45184;-73
2024/01/14 00:36:23;;;;;;;;;8.75;6.75;;;;;19.25;34.67;101819.53;6368251;22;45204;-74
2024/01/14 00:38:48;;;;;;;;;11.75;9.50;;;;;19.24;34.60;101823.13;6368001;22;45210;-73
2024/01/14 00:41:14;;;;;;;;;11.50;8.75;;;;;19.24;34.69;101815.22;6367400;22;45244;-75
2024/01/14 00:43:40;;;;;;;;;9.75;8.00;;;;;19.01;34.77;101775.88;6367716;22;46607;-73
2024/01/14 00:46:05;;;;;;;;;10.75;8.50;;;;;19.06;34.41;101780.72;6367872;22;45311;-75
2024/01/14 00:48:30;;;;;;;;;8.00;5.00;;;;;19.20;34.62;101813.84;6367844;22;49732;-76
2024/01/14 00:50:56;;;;;;;;;11.25;8.75;;;;;19.20;34.81;101799.81;6368323;22;45298;-75
2024/01/14 00:53:21;;;;;;;;;12.25;7.75;;;;;19.24;34.52;101806.47;6367419;22;45900;-74
2024/01/14 00:55:47;;;;;;;;;10.00;8.50;;;;;19.23;34.66;101808.25;6367648;22;45241;-76
2024/01/14 00:58:12;;;;;;;;;7.00;7.00;;;;;19.24;34.66;101806.47;6368467;22;45302;-75
2024/01/14 01:00:38;;;;;;;;;10.00;8.00;;;;;19.24;34.38;101798.53;6367787;22;45217;-75
2024/01/14 01:03:03;;;;;;;;;13.00;10.75;;;;;19.20;34.81;101787.47;6368002;22;45287;-76
2024/01/14 01:05:29;;;;;;;;;13.00;10.25;;;;;19.24;34.41;101791.47;6367828;22;45346;-76
2024/01/14 01:07:54;;;;;;;;;7.25;7.25;;;;;19.24;34.41;101780.06;6367717;22;46551;-75
2024/01/14 01:10:19;;;;;;;;;10.00;8.50;;;;;19.18;34.68;101773.53;6366894;22;54140;-76
2024/01/14 01:12:45;;;;;;;;;10.00;8.00;;;;;19.23;34.54;101771.31;6338818;22;56235;-77
2024/01/14 01:15:10;;;;;;;;;12.00;9.00;;;;;19.22;34.70;101768.84;6367456;22;45250;-75
2024/01/14 01:17:35;;;;;;;;;11.75;10.75;;;;;19.25;34.46;101763.28;6367831;22;45249;-75
2024/01/14 01:20:01;;;;;;;;;10.00;8.75;;;;;19.15;34.38;101742.16;6367992;22;45174;-75
2024/01/14 01:22:27;;;;;;;;;9.75;8.75;;;;;19.20;34.67;101750.53;6368159;22;46060;-75
2024/01/14 01:24:53;;;;;;;;;10.75;8.50;;;;;19.14;34.42;101728.13;6367550;22;45222;-75
2024/01/14 01:27:18;;;;;;;;;10.25;10.25;;;;;19.25;34.51;101750.09;6368194;22;45384;-75
2024/01/14 01:29:44;;;;;;;;;11.00;10.00;;;;;19.25;34.65;101744.81;6367385;22;45497;-75
2024/01/14 01:32:12;;;;;;;;;12.00;8.75;;;;;19.04;34.44;101716.75;6367947;22;46110;-77
2024/01/14 01:34:38;;;;;;;;;10.50;9.50;;;;;19.25;34.44;101745.66;6367731;22;45447;-75
2024/01/14 01:37:04;;;;;;;;;6.25;6.25;;;;;19.23;34.25;101741.50;6367660;22;45253;-75
2024/01/14 01:39:30;;;;;;;;;8.75;7.00;;;;;19.09;34.64;101711.88;6367184;22;45303;-75
2024/01/14 01:41:56;;;;;;;;;10.50;8.75;;;;;19.25;34.56;101743.03;6367080;22;45272;-75
2024/01/14 01:44:21;;;;;;;;;10.75;9.75;;;;;19.24;34.54;101733.44;6367702;22;45284;-76
2024/01/14 01:46:47;;;;;;;;;9.50;8.50;;;;;19.21;34.16;101724.94;6367575;22;45271;-75
2024/01/14 01:49:13;;;;;;;;;5.25;3.50;;;;;19.25;34.40;101734.25;6367444;22;45440;-75
2024/01/14 01:51:40;;;;;;;;;11.50;7.25;;;;;19.14;34.62;101712.28;6367226;22;45998;-75
2024/01/14 01:54:08;;;;;;;;;12.25;9.00;;;;;19.13;34.22;101713.25;6366764;22;45406;-76
2024/01/14 01:56:34;;;;;;;;;8.00;7.75;;;;;19.10;34.34;101705.63;6367511;22;45616;-75
2024/01/14 01:59:00;;;;;;;;;8.50;6.75;;;;;19.24;34.34;101719.41;6367470;22;45421;-75
2024/01/14 02:01:25;;;;;;;;;9.00;6.75;;;;;19.20;34.47;101702.19;6339405;22;48017;-76
2024/01/14 02:03:52;;;;;;;;;10.25;7.00;;;;;19.21;34.29;101706.47;6368556;22;45219;-75
2024/01/14 02:06:20;;;;;;;;;10.25;9.25;;;;;19.18;34.64;101689.13;6368769;22;45157;-75
2024/01/14 02:08:46;;;;;;;;;10.00;9.25;;;;;19.19;34.57;101685.53;6368542;22;45405;-76
2024/01/14 02:11:11;;;;;;;;;6.75;6.75;;;;;19.21;34.46;101691.50;6368943;22;45296;-75
2024/01/14 02:13:36;;;;;;;;;5.75;4.75;;;;;19.23;34.29;101699.28;6368638;22;45270;-76
2024/01/14 02:16:02;;;;;;;;;10.75;10.00;;;;;19.21;34.43;101694.13;6368694;22;45434;-76
2024/01/14 02:18:27;;;;;;;;;11.25;8.25;;;;;19.22;34.40;101689.69;6368633;22;45467;-76
2024/01/14 02:20:53;;;;;;;;;10.75;8.00;;;;;19.13;34.32;101686.88;6368408;22;47061;-76
2024/01/14 02:23:22;;;;;;;;;10.00;7.75;;;;;19.14;34.37;101685.91;6368482;22;45297;-75
2024/01/14 02:25:47;;;;;;;;;8.25;6.75;;;;;19.10;34.48;101679.25;6369042;22;45453;-75
2024/01/14 02:28:14;;;;;;;;;7.00;6.00;;;;;19.10;34.57;101671.31;6368942;22;45335;-75
2024/01/14 02:30:40;;;;;;;;;9.50;8.00;;;;;19.10;34.60;101676.59;6368118;22;46958;-75
2024/01/14 02:33:07;;;;;;;;;8.75;7.75;;;;;19.21;34.43;101685.38;6368697;22;45299;-75
2024/01/14 02:35:33;;;;;;;;;11.50;8.75;;;;;19.09;34.61;101663.56;6368681;22;45237;-75
2024/01/14 02:37:58;;;;;;;;;8.25;7.00;;;;;19.11;34.38;101665.09;6367975;22;45468;-75
2024/01/14 02:40:23;;;;;;;;;8.75;8.75;;;;;19.06;34.20;101659.41;6368380;22;46001;-76
2024/01/14 02:42:49;;;;;;;;;8.75;8.00;;;;;19.11;34.24;101664.25;6368332;22;45477;-75
2024/01/14 02:45:15;;;;;;;;;9.25;8.25;;;;;19.18;34.23;101663.56;6368503;22;45179;-75
2024/01/14 02:47:40;;;;;;;;;10.75;8.75;;;;;19.21;34.17;101667.75;6369008;22;45307;-75
2024/01/14 02:50:06;;;;;;;;;8.75;7.25;;;;;19.10;34.34;101642.31;6368638;22;45786;-75
2024/01/14 02:52:32;;;;;;;;;7.25;6.00;;;;;19.11;34.29;101641.34;6368066;22;45267;-76
2024/01/14 02:54:57;;;;;;;;;7.00;7.00;;;;;19.04;34.26;101627.91;6368754;22;45216;-76
2024/01/14 02:57:23;;;;;;;;;10.00;7.25;;;;;19.22;34.14;101656.22;6368394;22;45398;-76
2024/01/14 02:59:48;;;;;;;;;8.25;6.50;;;;;19.05;34.36;101632.19;6368112;22;46825;-76
2024/01/14 03:02:13;;;;;;;;;9.00;8.00;;;;;19.16;34.21;101636.47;6368339;22;45200;-75
2024/01/14 03:04:38;;;;;;;;;9.25;7.75;;;;;19.23;34.10;101646.50;6368318;22;45525;-76
2024/01/14 03:07:04;;;;;;;;;8.50;7.00;;;;;19.24;34.09;101645.53;6368093;22;51483;-75
2024/01/14 03:09:29;;;;;;;;;8.25;7.75;;;;;19.20;34.27;101628.31;6340014;22;53192;-75
2024/01/14 03:11:54;;;;;;;;;10.00;7.75;;;;;19.23;34.15;101638.59;6339233;22;60038;-76
2024/01/14 03:14:20;;;;;;;;;8.00;7.00;;;;;19.23;34.13;101633.31;6339782;22;45346;-75
2024/01/14 03:16:45;;;;;;;;;6.50;6.25;;;;;19.22;34.22;101632.47;6368742;22;45272;-75
2024/01/14 03:19:10;;;;;;;;;10.25;8.75;;;;;19.16;34.03;101612.75;6368518;22;46516;-74
2024/01/14 03:21:35;;;;;;;;;8.50;8.25;;;;;19.23;34.05;101628.03;6367815;22;55281;-74
2024/01/14 03:24:01;;;;;;;;;8.50;7.25;;;;;19.21;34.23;101617.63;6368014;22;48792;-76
2024/01/14 03:26:26;;;;;;;;;8.75;7.50;;;;;19.22;34.07;101621.94;6368943;22;45394;-75
2024/01/14 03:28:51;;;;;;;;;11.50;8.50;;;;;19.23;34.25;101620.13;6368015;22;46011;-75
2024/01/14 03:31:17;;;;;;;;;8.25;6.00;;;;;19.22;34.34;101626.38;6368711;22;45453;-75
2024/01/14 03:33:43;;;;;;;;;7.50;6.00;;;;;19.09;34.24;101592.34;6368752;22;45359;-76
2024/01/14 03:36:12;;;;;;;;;10.75;9.00;;;;;19.16;34.16;101602.19;6368232;22;45331;-75
2024/01/14 03:38:38;;;;;;;;;6.00;6.00;;;;;19.21;34.20;101608.84;6367875;22;47045;-75
2024/01/14 03:41:03;;;;;;;;;10.50;9.50;;;;;19.17;34.11;101605.66;6367703;22;61503;-75
2024/01/14 03:43:28;;;;;;;;;11.25;9.75;;;;;19.11;34.05;101595.66;6368617;22;45248;-75
2024/01/14 03:45:54;;;;;;;;;10.25;9.75;;;;;19.08;34.33;101583.59;6367688;22;53881;-76
2024/01/14 03:48:19;;;;;;;;;11.00;8.75;;;;;18.87;34.24;101552.13;6339912;22;48080;-75
2024/01/14 03:50:44;;;;;;;;;8.75;8.75;;;;;19.13;34.28;101585.78;6368085;22;45277;-75
2024/01/14 03:53:09;;;;;;;;;9.00;8.00;;;;;19.02;34.18;101573.63;6368629;22;45260;-76
2024/01/14 03:55:35;;;;;;;;;6.00;6.00;;;;;19.21;34.00;101600.94;6368307;22;46850;-75
2024/01/14 03:58:00;;;;;;;;;8.50;7.50;;;;;19.21;33.83;101599.16;6367446;22;58734;-76
2024/01/14 04:00:25;;;;;;;;;8.25;8.00;;;;;19.20;34.13;101597.50;6368559;22;45247;-76
2024/01/14 04:02:52;;;;;;;;;9.00;9.00;;;;;19.13;34.38;101584.00;6368237;22;45608;-75
2024/01/14 04:05:17;;;;;;;;;10.50;7.00;;;;;19.19;34.31;101595.81;6368182;22;45509;-75
2024/01/14 04:07:42;;;;;;;;;10.00;8.00;;;;;19.02;34.05;101566.53;6367699;22;45862;-75
2024/01/14 04:10:08;;;;;;;;;11.75;8.50;;;;;19.15;34.07;101595.22;6368345;22;45295;-76
2024/01/14 04:12:34;;;;;;;;;9.50;8.50;;;;;19.15;34.18;101595.22;6368646;22;45241;-76
2024/01/14 04:15:00;;;;;;;;;9.00;7.00;;;;;19.13;33.93;101585.78;6367977;22;52329;-75
2024/01/14 04:17:25;;;;;;;;;9.00;8.75;;;;;19.14;33.87;101588.31;6367870;22;46013;-75
2024/01/14 04:19:50;;;;;;;;;9.00;7.75;;;;;19.13;34.22;101584.00;6367322;22;45287;-75
2024/01/14 04:22:16;;;;;;;;;9.25;9.00;;;;;19.17;34.24;101581.91;6339882;22;45246;-75
2024/01/14 04:24:41;;;;;;;;;6.75;6.50;;;;;19.01;34.06;101548.22;6368283;22;45407;-75
2024/01/14 04:27:07;;;;;;;;;6.75;6.50;;;;;19.17;33.88;101574.00;6339533;22;46214;-75
2024/01/14 04:29:32;;;;;;;;;11.50;7.00;;;;;19.09;33.96;101564.16;6367700;22;45263;-76
2024/01/14 04:31:58;;;;;;;;;6.00;6.00;;;;;19.18;34.14;101575.69;6368454;22;45196;-75
2024/01/14 04:34:23;;;;;;;;;8.00;7.75;;;;;19.11;34.23;101564.00;6367862;22;45204;-75
2024/01/14 04:36:48;;;;;;;;;6.00;3.75;;;;;19.18;34.15;101573.88;6368159;22;46219;-75
2024/01/14 04:39:14;;;;;;;;;8.50;5.50;;;;;19.19;33.97;101580.00;6368219;22;45216;-75
2024/01/14 04:41:41;;;;;;;;;15.25;9.00;;;;;19.10;33.88;101557.91;6368645;22;45292;-75
2024/01/14 04:44:06;;;;;;;;;11.00;9.75;;;;;19.21;33.95;101574.56;6367846;22;45283;-75
2024/01/14 04:46:32;;;;;;;;;6.50;6.50;;;;;19.14;33.83;101559.28;6368100;22;45428;-76
2024/01/14 04:48:58;;;;;;;;;13.75;9.25;;;;;19.21;33.70;101569.28;6367727;22;45297;-76
2024/01/14 04:51:23;;;;;;;;;8.00;6.00;;;;;19.21;33.61;101567.47;6368069;22;45248;-75
2024/01/14 04:53:48;;;;;;;;;5.00;5.00;;;;;19.21;34.09;101566.66;6368311;22;45480;-75
2024/01/14 04:56:14;;;;;;;;;7.50;7.50;;;;;19.20;34.11;101565.00;6368147;22;46200;-75
2024/01/14 04:58:40;;;;;;;;;11.00;8.00;;;;;19.17;34.02;101558.19;6367707;22;45257;-76
2024/01/14 05:01:05;;;;;;;;;9.00;9.00;;;;;18.99;34.07;101529.91;6368253;22;45786;-76
2024/01/14 05:03:31;;;;;;;;;7.25;6.75;;;;;19.22;33.76;101561.25;6367510;22;45247;-76
2024/01/14 05:05:56;;;;;;;;;8.75;6.75;;;;;19.14;33.63;101540.81;6367500;22;46909;-76
2024/01/14 05:08:21;;;;;;;;;9.25;8.50;;;;;19.10;33.84;101542.06;6367502;22;45237;-76
2024/01/14 05:10:47;;;;;;;;;9.50;8.00;;;;;19.22;33.89;101553.34;6368244;22;45319;-76
2024/01/14 05:13:12;;;;;;;;;9.00;6.00;;;;;19.22;33.85;101555.97;6368165;22;45169;-76
2024/01/14 05:15:38;;;;;;;;;10.00;8.75;;;;;19.05;34.01;101531.13;6368164;22;45485;-76
2024/01/14 05:18:03;;;;;;;;;10.25;7.00;;;;;19.23;33.83;101554.16;6367130;22;45214;-75
2024/01/14 05:20:29;;;;;;;;;9.75;8.00;;;;;19.22;33.68;101555.97;6368176;22;45358;-75
2024/01/14 05:22:54;;;;;;;;;9.00;8.00;;;;;19.23;34.06;101559.44;6339252;22;52557;-75
2024/01/14 05:25:20;;;;;;;;;9.00;7.50;;;;;19.21;33.90;101559.56;6368013;22;46502;-76
2024/01/14 05:27:45;;;;;;;;;9.00;7.50;;;;;19.09;34.08;101540.44;6367511;22;45388;-75
2024/01/14 05:30:12;;;;;;;;;9.00;8.00;;;;;19.08;33.92;101544.03;6368049;22;45283;-75
2024/01/14 05:32:37;;;;;;;;;14.75;9.25;;;;;19.13;33.90;101544.44;6367116;22;45317;-75
2024/01/14 05:35:02;;;;;;;;;9.00;7.75;;;;;19.12;33.87;101537.50;6367084;22;55959;-75
2024/01/14 05:37:28;;;;;;;;;9.75;8.00;;;;;19.16;34.03;101554.69;6367369;22;45287;-75
2024/01/14 05:39:53;;;;;;;;;8.75;8.75;;;;;19.20;33.96;101552.66;6367965;22;45287;-75
2024/01/14 05:42:18;;;;;;;;;12.00;8.00;;;;;19.07;33.75;101531.84;6367758;22;48664;-75
2024/01/14 05:44:43;;;;;;;;;10.75;7.00;;;;;19.21;33.81;101548.19;6367159;22;58290;-76
2024/01/14 05:47:09;;;;;;;;;12.25;9.50;;;;;18.84;34.03;101498.69;6366871;22;45300;-75
2024/01/14 05:49:34;;;;;;;;;7.75;7.00;;;;;19.10;33.81;101533.34;6367876;22;45272;-75
2024/01/14 05:52:00;;;;;;;;;10.00;8.75;;;;;19.18;33.78;101552.78;6367889;22;45379;-75
2024/01/14 05:54:25;;;;;;;;;11.25;8.25;;;;;19.19;33.84;101550.97;6367787;22;46318;-75
2024/01/14 05:56:51;;;;;;;;;10.00;8.75;;;;;19.09;33.89;101531.69;6367624;22;45224;-75
2024/01/14 05:59:16;;;;;;;;;6.75;6.50;;;;;19.17;34.03;101545.81;6339254;22;45257;-75
2024/01/14 06:01:41;;;;;;;;;5.25;3.25;;;;;19.18;33.97;101544.03;6367147;22;45198;-75
2024/01/14 06:04:07;;;;;;;;;9.25;8.00;;;;;19.17;33.87;101540.53;6367149;22;46282;-76
2024/01/14 06:06:33;;;;;;;;;7.25;7.25;;;;;19.16;34.05;101541.50;6367343;22;45221;-76
2024/01/14 06:08:58;;;;;;;;;8.75;7.00;;;;;19.16;33.73;101549.44;6367706;22;45228;-75
2024/01/14 06:11:23;;;;;;;;;9.50;8.50;;;;;19.17;33.90;101543.19;6367270;22;51702;-76
2024/01/14 06:13:49;;;;;;;;;10.00;6.75;;;;;19.03;33.88;101522.53;6366796;22;50795;-76
2024/01/14 06:16:15;;;;;;;;;10.50;9.25;;;;;19.07;33.81;101535.28;6366736;22;45227;-76
2024/01/14 06:18:40;;;;;;;;;9.00;7.75;;;;;19.17;33.94;101540.53;6367256;22;45226;-75
2024/01/14 06:21:06;;;;;;;;;8.00;7.50;;;;;19.02;33.70;101516.41;6367530;22;45430;-76
2024/01/14 06:23:32;;;;;;;;;9.75;8.00;;;;;19.15;33.81;101536.38;6366824;22;46914;-76
2024/01/14 06:25:57;;;;;;;;;12.25;10.25;;;;;19.12;33.97;101534.03;6366977;22;45457;-72
2024/01/14 06:28:22;;;;;;;;;11.50;8.25;;;;;19.03;33.73;101520.72;6367727;22;45301;-76
2024/01/14 06:30:48;;;;;;;;;8.00;8.00;;;;;19.14;34.12;101526.81;6366937;22;45395;-76
2024/01/14 06:33:13;;;;;;;;;8.25;8.00;;;;;19.17;33.88;101529.16;6367102;22;45360;-76
2024/01/14 06:35:39;;;;;;;;;9.50;7.25;;;;;19.14;33.73;101519.72;6367350;22;45347;-74
2024/01/14 06:38:04;;;;;;;;;10.25;8.25;;;;;19.16;33.88;101525.69;6366880;22;45308;-76
2024/01/14 06:40:30;;;;;;;;;10.75;9.75;;;;;19.03;33.77;101491.72;6367481;22;45217;-76
2024/01/14 06:42:55;;;;;;;;;8.00;7.00;;;;;19.14;33.86;101508.34;6367086;22;45281;-76
2024/01/14 06:45:21;;;;;;;;;5.25;5.25;;;;;19.19;33.81;101516.69;6366728;22;45283;-76
2024/01/14 06:47:46;;;;;;;;;7.25;6.00;;;;;19.14;33.78;101514.44;6367774;22;45277;-74
2024/01/14 06:50:12;;;;;;;;;10.00;9.50;;;;;18.97;34.01;101471.19;6368865;22;45427;-76
2024/01/14 06:52:38;;;;;;;;;11.75;8.25;;;;;19.19;33.81;101511.41;6368269;22;46100;-76
2024/01/14 06:55:07;;;;;;;;;7.25;7.00;;;;;19.19;33.84;101503.50;6368598;22;45172;-75
2024/01/14 06:57:33;;;;;;;;;8.00;6.00;;;;;19.03;33.54;101480.31;6368486;22;45353;-75
2024/01/14 07:00:00;;;;;;;;;12.00;10.00;;;;;19.16;33.87;101506.38;6367845;22;45218;-76
2024/01/14 07:02:25;;;;;;;;;7.75;7.75;;;;;19.07;33.88;101489.63;6368801;22;45295;-76
2024/01/14 07:04:51;;;;;;;;;9.00;7.25;;;;;19.14;33.65;101503.91;6368189;22;45552;-76
2024/01/14 07:07:16;;;;;;;;;10.25;8.00;;;;;19.19;33.78;101506.13;6368796;22;45253;-76
2024/01/14 07:09:42;;;;;;;;;10.00;9.75;;;;;19.19;33.88;101498.22;6368344;22;45219;-76
2024/01/14 07:12:07;;;;;;;;;9.75;8.75;;;;;19.18;34.00;101491.25;6339530;22;56030;-76
2024/01/14 07:14:32;;;;;;;;;6.50;4.75;;;;;19.18;33.85;101499.19;6367726;22;45166;-74
2024/01/14 07:16:58;;;;;;;;;9.75;9.00;;;;;19.18;34.07;101494.75;6368929;22;45257;-73
2024/01/14 07:19:23;;;;;;;;;9.00;8.00;;;;;19.18;33.77;101504.44;6368231;22;45367;-75
2024/01/14 07:21:48;;;;;;;;;13.25;9.75;;;;;19.14;33.92;101492.50;6367970;22;46396;-72
2024/01/14 07:24:14;;;;;;;;;7.25;5.75;;;;;18.99;33.94;101469.25;6368408;22;53349;-75
2024/01/14 07:26:39;;;;;;;;;12.75;8.25;;;;;19.12;34.05;101483.91;6368400;22;45299;-76
2024/01/14 07:29:05;;;;;;;;;9.50;8.00;;;;;19.11;33.84;101482.25;6368405;22;45308;-76
2024/01/14 07:31:31;;;;;;;;;9.75;8.75;;;;;19.09;33.98;101471.00;6367831;22;54848;-74
2024/01/14 07:33:57;;;;;;;;;9.00;7.75;;;;;18.95;33.97;101454.69;6368333;22;45272;-76
2024/01/14 07:36:22;;;;;;;;;10.00;8.25;;;;;19.00;34.00;101460.34;6368198;22;45457;-75
2024/01/14 07:38:50;;;;;;;;;7.75;6.25;;;;;19.17;33.97;101484.31;6368627;22;45734;-75
2024/01/14 07:41:16;;;;;;;;;10.00;7.00;;;;;19.08;34.02;101475.44;6367772;22;47289;-75
2024/01/14 07:43:43;;;;;;;;;10.25;9.25;;;;;19.17;33.85;101486.94;6368115;22;45241;-76
2024/01/14 07:46:08;;;;;;;;;8.75;6.50;;;;;19.17;33.88;101484.31;6368606;22;45175;-76
2024/01/14 07:48:34;;;;;;;;;6.50;6.50;;;;;19.05;33.86;101465.19;6339966;22;45501;-76
2024/01/14 07:51:01;;;;;;;;;10.25;8.75;;;;;19.18;33.86;101486.00;6368360;22;45437;-74
2024/01/14 07:53:26;;;;;;;;;9.50;9.00;;;;;19.17;33.84;101490.44;6367844;22;45377;-76
2024/01/14 07:55:52;;;;;;;;;7.75;6.00;;;;;19.08;33.99;101470.16;6367878;22;45374;-76
2024/01/14 07:58:17;;;;;;;;;8.25;7.50;;;;;19.16;33.79;101478.19;6367777;22;45330;-73
2024/01/14 08:00:43;;;;;;;;;9.00;8.00;;;;;19.00;33.88;101455.06;6367749;22;46747;-76
2024/01/14 08:03:08;;;;;;;;;10.75;6.75;;;;;19.07;33.81;101464.06;6368373;22;45227;-75
2024/01/14 08:05:35;;;;;;;;;12.00;9.50;;;;;19.08;33.90;101478.09;6368791;22;45261;-75
2024/01/14 08:08:01;;;;;;;;;8.25;8.00;;;;;19.03;33.90;101469.78;6368082;22;45406;-75
2024/01/14 08:10:27;;;;;;;;;7.50;6.75;;;;;19.15;34.03;101486.28;6368032;22;46194;-76
2024/01/14 08:12:52;;;;;;;;;9.00;7.00;;;;;19.13;33.89;101478.47;6367855;22;45314;-76
2024/01/14 08:15:17;;;;;;;;;6.75;6.25;;;;;18.95;33.81;101452.88;6339961;22;45246;-76
2024/01/14 08:17:43;;;;;;;;;8.75;7.25;;;;;19.15;33.73;101487.06;6368544;22;45244;-75
2024/01/14 08:20:10;;;;;;;;;6.00;6.00;;;;;19.02;33.87;101463.66;6367867;22;46537;-75
2024/01/14 08:22:36;;;;;;;;;9.00;7.25;;;;;19.07;33.70;101464.06;6367738;22;45415;-75
2024/01/14 08:25:02;;;;;;;;;11.00;9.00;;;;;19.03;33.88;101456.59;6368365;22;45240;-75
2024/01/14 08:27:27;;;;;;;;;8.00;7.50;;;;;19.17;33.63;101479.03;6367943;22;45518;-76
2024/01/14 08:29:52;;;;;;;;;9.75;7.75;;;;;19.03;33.71;101465.34;6367815;22;46026;-75
2024/01/14 08:32:18;;;;;;;;;11.00;8.50;;;;;19.17;33.70;101492.22;6368161;22;46705;-75
2024/01/14 08:34:43;;;;;;;;;6.00;5.75;;;;;19.17;33.76;101486.94;6339559;22;45414;-75
2024/01/14 08:37:08;;;;;;;;;9.50;7.50;;;;;19.17;33.69;101477.25;6367412;22;51941;-75
2024/01/14 08:39:34;;;;;;;;;8.50;7.00;;;;;19.14;33.94;101466.97;6367673;22;61149;-75
2024/01/14 08:41:59;;;;;;;;;11.00;6.25;;;;;19.08;33.91;101464.91;6367690;22;45319;-75
2024/01/14 08:44:24;;;;;;;;;10.00;7.00;;;;;19.06;33.67;101454.50;6368086;22;50803;-75
2024/01/14 08:46:50;;;;;;;;;9.00;7.50;;;;;19.16;33.82;101462.38;6367944;22;45368;-75
2024/01/14 08:49:16;;;;;;;;;8.75;6.75;;;;;19.08;33.74;101459.63;6339160;22;54190;-75
2024/01/14 08:51:41;;;;;;;;;8.75;7.00;;;;;19.16;33.77;101464.19;6367494;22;52081;-76
2024/01/14 08:54:06;;;;;;;;;8.50;7.50;;;;;19.15;34.06;101465.16;6339234;22;45262;-75
2024/01/14 08:56:32;;;;;;;;;8.25;7.00;;;;;19.15;33.79;101465.97;6368381;22;45122;-75
2024/01/14 08:58:58;;;;;;;;;7.25;6.50;;;;;19.02;33.77;101447.84;6367509;22;46198;-75
2024/01/14 09:01:24;;;;;;;;;8.00;7.00;;;;;19.06;33.78;101448.41;6367673;22;45449;-75
2024/01/14 09:03:49;;;;;;;;;8.50;7.00;;;;;19.11;33.66;101455.88;6367854;22;45297;-76
2024/01/14 09:06:15;;;;;;;;;9.25;8.25;;;;;19.12;34.04;101458.38;6368286;22;45426;-76
2024/01/14 09:08:41;;;;;;;;;8.75;8.50;;;;;19.14;33.78;101455.56;6366954;22;45375;-75
2024/01/14 09:11:07;;;;;;;;;7.50;5.75;;;;;19.14;33.65;101452.94;6367150;22;52473;-76
2024/01/14 09:13:33;;;;;;;;;10.25;8.50;;;;;19.14;33.96;101448.50;6367781;22;45315;-75
2024/01/14 09:15:58;;;;;;;;;11.25;7.75;;;;;19.05;33.88;101430.91;6367274;22;45356;-76
2024/01/14 09:18:24;;;;;;;;;7.25;7.00;;;;;19.14;33.62;101434.47;6368072;22;45291;-76
2024/01/14 09:20:50;;;;;;;;;12.00;9.50;;;;;19.14;33.88;101429.19;6368031;22;45506;-75
2024/01/14 09:23:15;;;;;;;;;7.00;5.25;;;;;19.11;33.87;101432.97;6367382;22;45213;-75
2024/01/14 09:25:40;;;;;;;;;9.25;7.50;;;;;19.04;33.97;101410.78;6367996;22;45706;-76
2024/01/14 09:28:06;;;;;;;;;8.00;7.00;;;;;19.14;33.58;101443.22;6367367;22;46922;-75
2024/01/14 09:30:31;;;;;;;;;10.75;8.00;;;;;19.14;33.75;101453.78;6367659;22;45269;-75
2024/01/14 09:32:58;;;;;;;;;6.75;6.00;;;;;19.15;33.96;101444.06;6368096;22;45244;-76
2024/01/14 09:35:23;;;;;;;;;9.00;8.00;;;;;19.12;33.66;101433.81;6367891;22;45208;-76
2024/01/14 09:37:49;;;;;;;;;9.00;8.00;;;;;19.06;33.61;101427.28;6366782;22;45334;-73
2024/01/14 09:40:16;;;;;;;;;10.25;8.50;;;;;19.03;33.98;101428.41;6367668;22;45290;-74
2024/01/14 09:42:44;;;;;;;;;6.25;6.25;;;;;19.05;33.84;101431.72;6367364;22;45277;-76
2024/01/14 09:45:10;;;;;;;;;7.75;6.75;;;;;19.10;33.88;101441.03;6367473;22;45262;-76
2024/01/14 09:47:36;;;;;;;;;6.50;6.50;;;;;18.83;33.65;101394.22;6367013;22;46472;-75
2024/01/14 09:50:02;;;;;;;;;8.50;8.50;;;;;19.13;33.84;101443.34;6339216;22;45448;-76
2024/01/14 09:52:31;;;;;;;;;10.25;7.00;;;;;19.02;33.71;101426.75;6367735;22;45275;-75
2024/01/14 09:54:57;;;;;;;;;7.25;6.25;;;;;19.01;33.87;101432.16;6367172;22;45406;-76
2024/01/14 09:57:23;;;;;;;;;10.00;7.50;;;;;19.03;33.78;101435.50;6366860;22;47323;-76
2024/01/14 09:59:50;;;;;;;;;6.75;6.75;;;;;19.14;33.87;101445.03;6367309;22;45256;-76
2024/01/14 10:02:16;;;;;;;;;7.00;7.00;;;;;19.15;33.82;101455.41;6367323;22;45320;-76
2024/01/14 10:04:42;;;;;;;;;8.50;7.00;;;;;19.07;33.83;101436.88;6367752;22;45412;-76
2024/01/14 10:07:09;;;;;;;;;7.25;6.25;;;;;19.16;33.75;101450.97;6366634;22;47104;-76
2024/01/14 10:09:34;;;;;;;;;6.00;4.50;;;;;18.94;33.58;101414.28;6367572;22;45293;-75
2024/01/14 10:12:00;;;;;;;;;11.75;9.00;;;;;19.11;33.32;101446.16;6367631;22;45236;-76
2024/01/14 10:14:28;;;;;;;;;8.00;7.50;;;;;19.12;33.46;101439.06;6367135;22;45237;-76
2024/01/14 10:17:00;;;;;;;;;7.25;6.00;;;;;19.16;33.56;101445.72;6366891;22;46154;-76
2024/01/14 10:19:25;;;;;;;;;8.50;8.00;;;;;19.06;33.83;101424.66;6367309;22;45319;-76
2024/01/14 10:21:55;;;;;;;;;6.00;6.00;;;;;19.01;33.62;101417.19;6366808;22;45310;-73
2024/01/14 10:24:21;;;;;;;;;7.50;7.50;;;;;19.02;33.56;101413.56;6368624;22;45402;-75
2024/01/14 10:26:54;;;;;;;;;7.00;7.00;;;;;19.17;33.65;101426.28;6368340;22;46934;-73
2024/01/14 10:29:20;;;;;;;;;7.25;7.00;;;;;19.16;33.71;101424.59;6368378;22;45334;-76
2024/01/14 10:31:46;;;;;;;;;9.25;6.50;;;;;19.12;33.74;101415.34;6368078;22;45462;-76
2024/01/14 10:34:11;;;;;;;;;10.50;9.75;;;;;19.15;33.58;101423.75;6366706;22;45446;-76
2024/01/14 10:36:37;;;;;;;;;8.75;6.75;;;;;19.16;33.31;101422.81;6367004;22;46116;-76
2024/01/14 10:39:04;;;;;;;;;9.50;7.00;;;;;19.16;33.75;101416.69;6368718;22;45519;-75
2024/01/14 10:41:29;;;;;;;;;9.50;9.50;;;;;18.91;33.71;101379.47;6368707;22;45391;-75
2024/01/14 10:43:55;;;;;;;;;10.75;9.00;;;;;19.15;33.87;101415.03;6368646;22;45306;-74
2024/01/14 10:46:22;;;;;;;;;9.50;7.25;;;;;19.15;33.81;101407.13;6368760;22;45329;-73
2024/01/14 10:49:01;;;;;;;;;7.25;6.00;;;;;19.06;33.72;101390.38;6368615;22;45340;-73
2024/01/14 10:51:31;;;;;;;;;7.75;7.75;;;;;19.14;34.00;101405.47;6368407;22;45374;-74
2024/01/14 10:54:18;;;;;;;;;8.00;6.50;;;;;19.14;33.88;101389.63;6368763;22;45368;-77
2024/01/14 10:56:48;;;;;;;;;5.75;5.00;;;;;19.07;33.87;101374.38;6367173;22;47141;-77
2024/01/14 10:59:15;;;;;;;;;10.25;8.50;;;;;19.00;34.04;101354.84;6368197;22;45363;-79
2024/01/14 11:01:48;;;;;;;;;7.00;5.75;;;;;19.15;34.17;101375.47;6368416;22;45276;-85
2024/01/14 11:04:15;;;;;;;;;9.25;7.00;;;;;19.13;33.95;101361.59;6368652;22;45186;-87
2024/01/14 11:06:43;;;;;;;;;8.50;6.50;;;;;18.98;34.26;101329.59;6367087;22;46284;-83
2024/01/14 11:09:08;;;;;;;;;7.75;5.00;;;;;19.18;34.11;101356.72;6368445;22;45268;-80
2024/01/14 11:11:45;;;;;;;;;7.00;4.75;;;;;19.07;34.47;101331.38;6339480;22;47341;-82
2024/01/14 11:14:20;;;;;;;;;8.50;6.00;;;;;18.94;34.51;101310.63;6367743;22;45437;-79